createdAt,value
2022-09-05T00:00:37.727Z,22.49
2022-09-05T00:01:54.563Z,22.48
2022-09-05T00:02:56.237Z,22.46
2022-09-05T00:04:08.403Z,22.45
2022-09-05T00:05:51.027Z,22.42
2022-09-05T00:07:11.847Z,22.40
2022-09-05T00:08:51.978Z,22.39
2022-09-05T00:10:09.012Z,22.39
2022-09-05T00:11:41.805Z,22.37
2022-09-05T00:12:37.881Z,22.36
2022-09-05T00:13:40.628Z,22.34
2022-09-05T00:15:15.896Z,22.33
2022-09-05T00:16:46.803Z,22.31
2022-09-05T00:22:07.096Z,22.31
2022-09-05T00:24:23.161Z,22.27
2022-09-05T00:24:29.053Z,22.26
2022-09-05T00:24:34.938Z,22.24
2022-09-05T00:24:50.313Z,22.23
2022-09-05T00:26:34.829Z,22.21
2022-09-05T00:27:54.273Z,22.20
2022-09-05T00:28:55.777Z,22.18
2022-09-05T00:31:06.574Z,22.18
2022-09-05T00:31:54.043Z,22.16
2022-09-05T00:32:49.257Z,22.14
2022-09-05T00:34:09.548Z,22.14
2022-09-05T00:35:20.169Z,22.13
2022-09-05T00:36:32.039Z,22.11
2022-09-05T00:37:34.242Z,22.11
2022-09-05T00:38:36.486Z,22.10
2022-09-05T00:39:39.547Z,22.09
2022-09-05T00:40:56.994Z,22.09
2022-09-05T00:42:04.385Z,22.08
2022-09-05T00:43:07.523Z,22.06
2022-09-05T00:44:09.015Z,22.04
2022-09-05T00:45:19.631Z,22.03
2022-09-05T00:46:22.383Z,22.00
2022-09-05T00:47:33.528Z,21.98
2022-09-05T00:48:41.891Z,21.96
2022-09-05T00:49:43.418Z,21.95
2022-09-05T00:50:55.042Z,21.93
2022-09-05T00:52:00.781Z,21.92
2022-09-05T00:53:10.762Z,21.86
2022-09-05T00:54:26.321Z,21.89
2022-09-05T00:55:57.849Z,21.87
2022-09-05T00:57:18.966Z,21.84
2022-09-05T00:58:35.614Z,21.82
2022-09-05T00:59:58.938Z,21.79
2022-09-05T01:01:00.969Z,21.76
2022-09-05T01:02:04.638Z,21.76
2022-09-05T01:03:16.250Z,21.73
2022-09-05T01:04:17.828Z,21.73
2022-09-05T01:05:31.882Z,21.72
2022-09-05T01:06:37.332Z,21.72
2022-09-05T01:07:50.944Z,21.70
2022-09-05T01:09:08.589Z,21.69
2022-09-05T01:10:25.535Z,21.68
2022-09-05T01:11:36.265Z,21.66
2022-09-05T01:12:48.538Z,21.65
2022-09-05T01:14:14.932Z,21.64
2022-09-05T01:15:34.479Z,21.63
2022-09-05T01:16:48.232Z,21.61
2022-09-05T01:17:49.696Z,21.57
2022-09-05T01:19:00.459Z,21.54
2022-09-05T01:20:20.722Z,21.50
2022-09-05T01:21:22.191Z,21.44
2022-09-05T01:22:59.346Z,21.42
2022-09-05T01:24:05.543Z,21.40
2022-09-05T01:25:13.056Z,21.39
2022-09-05T01:26:20.638Z,21.37
2022-09-05T01:27:50.150Z,21.35
2022-09-05T01:29:16.064Z,21.27
2022-09-05T01:30:22.203Z,21.34
2022-09-05T01:31:36.429Z,21.34
2022-09-05T01:32:41.398Z,21.34
2022-09-05T01:33:45.755Z,21.34
2022-09-05T01:34:53.294Z,21.32
2022-09-05T01:36:09.959Z,21.33
2022-09-05T01:37:24.837Z,21.32
2022-09-05T01:40:11.130Z,21.30
2022-09-05T01:40:30.606Z,21.28
2022-09-05T01:41:40.435Z,21.28
2022-09-05T01:42:51.090Z,21.26
2022-09-05T01:43:58.756Z,21.24
2022-09-05T01:45:23.878Z,21.23
2022-09-05T01:46:35.051Z,21.22
2022-09-05T01:47:55.137Z,21.22
2022-09-05T01:49:08.771Z,21.19
2022-09-05T01:50:10.670Z,21.20
2022-09-05T01:51:28.909Z,21.19
2022-09-05T01:52:49.418Z,21.17
2022-09-05T01:54:25.669Z,21.16
2022-09-05T01:56:04.997Z,21.11
2022-09-05T01:57:19.671Z,21.11
2022-09-05T01:58:36.427Z,21.10
2022-09-05T01:59:39.534Z,21.09
2022-09-05T02:00:50.963Z,21.08
2022-09-05T02:01:55.370Z,21.09
2022-09-05T02:03:03.247Z,21.08
2022-09-05T02:04:19.958Z,21.07
2022-09-05T02:05:47.770Z,21.06
2022-09-05T02:06:54.534Z,21.05
2022-09-05T02:08:03.056Z,21.04
2022-09-05T02:09:10.819Z,21.04
2022-09-05T02:10:31.124Z,21.03
2022-09-05T02:11:40.103Z,21.01
2022-09-05T02:12:44.675Z,21.01
2022-09-05T02:14:28.796Z,21.00
2022-09-05T02:15:38.611Z,20.99
2022-09-05T02:16:44.250Z,20.98
2022-09-05T02:17:51.023Z,20.98
2022-09-05T02:18:53.068Z,20.97
2022-09-05T02:19:59.738Z,20.96
2022-09-05T02:21:01.406Z,20.94
2022-09-05T02:22:07.159Z,20.92
2022-09-05T02:23:40.662Z,20.93
2022-09-05T02:24:43.554Z,20.91
2022-09-05T02:26:01.168Z,20.91
2022-09-05T02:27:31.637Z,20.90
2022-09-05T02:28:47.867Z,20.87
2022-09-05T02:29:58.696Z,20.86
2022-09-05T02:31:19.636Z,20.85
2022-09-05T02:32:27.411Z,20.85
2022-09-05T02:33:32.827Z,20.83
2022-09-05T02:34:39.838Z,20.83
2022-09-05T02:35:47.689Z,20.82
2022-09-05T02:36:51.752Z,20.82
2022-09-05T02:39:02.490Z,20.82
2022-09-05T02:45:02.202Z,20.82
2022-09-05T02:45:02.920Z,20.82
2022-09-05T02:45:06.888Z,20.81
2022-09-05T02:45:23.929Z,20.80
2022-09-05T02:45:31.324Z,20.79
2022-09-05T02:46:39.023Z,20.79
2022-09-05T02:47:58.968Z,20.77
2022-09-05T02:49:44.511Z,20.78
2022-09-05T02:56:42.472Z,20.74
2022-09-05T02:57:29.556Z,20.73
2022-09-05T02:57:39.467Z,20.71
2022-09-05T02:57:41.587Z,20.72
2022-09-05T02:57:43.493Z,20.69
2022-09-05T02:58:07.610Z,20.69
2022-09-05T02:59:35.799Z,20.68
2022-09-05T03:00:39.551Z,20.68
2022-09-05T03:01:59.630Z,20.67
2022-09-05T03:03:03.583Z,20.66
2022-09-05T03:04:14.721Z,20.65
2022-09-05T03:05:18.518Z,20.64
2022-09-05T03:06:43.322Z,20.64
2022-09-05T03:07:54.194Z,20.63
2022-09-05T03:09:17.210Z,20.63
2022-09-05T03:10:53.769Z,20.61
2022-09-05T03:12:28.759Z,20.60
2022-09-05T03:13:53.820Z,20.59
2022-09-05T03:15:22.224Z,20.57
2022-09-05T03:16:47.497Z,20.56
2022-09-05T03:17:49.228Z,20.54
2022-09-05T03:18:57.830Z,20.52
2022-09-05T03:19:59.293Z,20.51
2022-09-05T03:21:09.161Z,20.50
2022-09-05T03:22:22.484Z,20.48
2022-09-05T03:23:42.657Z,20.47
2022-09-05T03:25:13.680Z,20.46
2022-09-05T03:26:18.168Z,20.44
2022-09-05T03:27:38.558Z,20.43
2022-09-05T03:28:58.819Z,20.44
2022-09-05T03:30:08.334Z,20.43
2022-09-05T03:31:22.653Z,20.42
2022-09-05T03:32:24.458Z,20.43
2022-09-05T03:33:32.250Z,20.41
2022-09-05T03:34:44.773Z,20.32
2022-09-05T03:36:04.933Z,20.40
2022-09-05T03:37:09.507Z,20.39
2022-09-05T03:38:14.035Z,20.39
2022-09-05T03:39:18.575Z,20.38
2022-09-05T03:40:36.573Z,20.38
2022-09-05T03:41:56.764Z,20.37
2022-09-05T03:43:18.646Z,20.36
2022-09-05T03:44:26.058Z,20.35
2022-09-05T03:45:36.559Z,20.29
2022-09-05T03:46:54.139Z,20.34
2022-09-05T03:48:28.069Z,20.34
2022-09-05T03:50:07.466Z,20.33
2022-09-05T03:57:04.868Z,20.33
2022-09-05T03:57:06.812Z,20.32
2022-09-05T03:57:16.383Z,20.32
2022-09-05T03:57:24.555Z,20.31
2022-09-05T03:57:36.974Z,20.30
2022-09-05T03:58:59.559Z,20.28
2022-09-05T04:00:09.438Z,20.29
2022-09-05T04:02:46.427Z,20.28
2022-09-05T04:05:18.846Z,20.25
2022-09-05T04:08:06.332Z,20.27
2022-09-05T04:08:13.702Z,20.26
2022-09-05T04:08:23.677Z,20.26
2022-09-05T04:08:34.167Z,20.26
2022-09-05T04:09:51.029Z,20.25
2022-09-05T04:11:09.677Z,20.25
2022-09-05T04:12:14.038Z,20.27
2022-09-05T04:13:35.023Z,20.26
2022-09-05T04:14:48.471Z,20.27
2022-09-05T04:16:08.881Z,20.27
2022-09-05T04:17:11.670Z,20.26
2022-09-05T04:18:32.805Z,20.24
2022-09-05T04:19:38.995Z,20.24
2022-09-05T04:20:50.504Z,20.24
2022-09-05T04:21:55.295Z,20.24
2022-09-05T04:23:02.956Z,20.23
2022-09-05T04:24:09.062Z,20.23
2022-09-05T04:25:13.620Z,20.23
2022-09-05T04:26:18.259Z,20.21
2022-09-05T04:27:40.382Z,20.20
2022-09-05T04:28:53.153Z,20.19
2022-09-05T04:29:55.390Z,20.20
2022-09-05T04:31:17.574Z,20.20
2022-09-05T04:32:28.219Z,20.19
2022-09-05T04:33:36.136Z,20.19
2022-09-05T04:34:57.047Z,20.20
2022-09-05T04:36:17.576Z,20.19
2022-09-05T04:37:48.969Z,20.18
2022-09-05T04:39:23.315Z,20.19
2022-09-05T04:40:45.139Z,20.18
2022-09-05T04:41:55.735Z,20.17
2022-09-05T04:42:58.042Z,20.16
2022-09-05T04:44:00.931Z,20.16
2022-09-05T04:45:10.083Z,20.16
2022-09-05T04:46:12.403Z,20.17
2022-09-05T04:47:27.726Z,20.16
2022-09-05T04:48:35.243Z,20.15
2022-09-05T04:49:40.754Z,20.16
2022-09-05T04:50:45.503Z,20.16
2022-09-05T04:52:03.930Z,20.15
2022-09-05T04:53:05.561Z,20.15
2022-09-05T04:54:19.267Z,20.15
2022-09-05T04:55:21.350Z,20.15
2022-09-05T04:56:24.981Z,20.15
2022-09-05T04:57:29.210Z,20.14
2022-09-05T05:00:07.609Z,20.15
2022-09-05T05:01:58.973Z,20.15
2022-09-05T05:05:59.562Z,20.15
2022-09-05T05:06:09.428Z,20.15
2022-09-05T05:06:13.901Z,20.15
2022-09-05T05:06:14.661Z,20.15
2022-09-05T05:07:09.194Z,20.16
2022-09-05T05:08:16.610Z,20.15
2022-09-05T05:09:31.599Z,20.15
2022-09-05T05:12:44.390Z,20.14
2022-09-05T05:17:57.708Z,20.15
2022-09-05T05:18:01.024Z,20.15
2022-09-05T05:18:01.444Z,20.15
2022-09-05T05:18:08.631Z,20.14
2022-09-05T05:18:08.797Z,20.14
2022-09-05T05:19:17.245Z,20.16
2022-09-05T05:20:42.072Z,20.15
2022-09-05T05:21:49.321Z,20.17
2022-09-05T05:23:10.026Z,20.18
2022-09-05T05:24:15.334Z,20.17
2022-09-05T05:25:16.923Z,20.19
2022-09-05T05:26:23.253Z,20.20
2022-09-05T05:27:45.666Z,20.20
2022-09-05T05:28:47.202Z,20.21
2022-09-05T05:30:09.189Z,20.21
2022-09-05T05:31:12.715Z,20.21
2022-09-05T05:32:45.560Z,20.23
2022-09-05T05:33:51.099Z,20.24
2022-09-05T05:34:53.987Z,20.25
2022-09-05T05:35:58.573Z,20.26
2022-09-05T05:37:18.481Z,20.27
2022-09-05T05:38:20.043Z,20.28
2022-09-05T05:39:31.022Z,20.28
2022-09-05T05:40:37.580Z,20.29
2022-09-05T05:41:48.962Z,20.32
2022-09-05T05:42:50.460Z,20.32
2022-09-05T05:43:51.992Z,20.34
2022-09-05T05:44:54.698Z,20.34
2022-09-05T05:45:57.313Z,20.35
2022-09-05T05:46:58.850Z,20.36
2022-09-05T05:48:04.391Z,20.37
2022-09-05T05:49:27.015Z,20.39
2022-09-05T05:50:47.727Z,20.40
2022-09-05T05:52:07.782Z,20.42
2022-09-05T05:53:43.215Z,20.43
2022-09-05T05:54:48.496Z,20.44
2022-09-05T05:55:53.575Z,20.45
2022-09-05T05:57:21.710Z,20.46
2022-09-05T05:58:41.915Z,20.49
2022-09-05T05:59:56.547Z,20.50
2022-09-05T06:01:37.117Z,20.52
2022-09-05T06:03:25.872Z,20.53
2022-09-05T06:04:35.411Z,20.54
2022-09-05T06:06:03.493Z,20.56
2022-09-05T06:07:04.974Z,20.56
2022-09-05T06:13:40.353Z,20.57
2022-09-05T06:14:21.933Z,20.57
2022-09-05T06:15:01.178Z,20.58
2022-09-05T06:15:02.369Z,20.61
2022-09-05T06:15:06.636Z,20.61
2022-09-05T06:16:21.305Z,20.61
2022-09-05T06:17:28.348Z,20.52
2022-09-05T06:18:35.763Z,20.62
2022-09-05T06:20:01.769Z,20.63
2022-09-05T06:22:06.099Z,20.65
2022-09-05T06:23:05.311Z,20.68
2022-09-05T06:24:24.412Z,20.70
2022-09-05T06:25:31.870Z,20.73
2022-09-05T06:26:33.329Z,20.76
2022-09-05T06:28:17.392Z,20.78
2022-09-05T06:29:18.837Z,20.83
2022-09-05T06:30:20.956Z,20.86
2022-09-05T06:31:34.667Z,20.89
2022-09-05T06:32:58.074Z,20.93
2022-09-05T06:34:33.395Z,20.97
2022-09-05T06:35:49.182Z,21.02
2022-09-05T06:37:03.938Z,21.06
2022-09-05T06:38:17.036Z,21.11
2022-09-05T06:39:18.675Z,21.16
2022-09-05T06:40:46.378Z,21.21
2022-09-05T06:41:47.832Z,21.27
2022-09-05T06:42:59.193Z,21.31
2022-09-05T06:44:13.699Z,21.35
2022-09-05T06:45:28.170Z,21.40
2022-09-05T06:46:52.858Z,21.47
2022-09-05T06:48:00.334Z,21.55
2022-09-05T06:49:30.856Z,21.60
2022-09-05T06:51:07.351Z,21.67
2022-09-05T06:52:27.884Z,21.76
2022-09-05T06:53:47.554Z,21.82
2022-09-05T06:55:07.814Z,21.88
2022-09-05T06:56:12.658Z,21.93
2022-09-05T06:57:35.615Z,21.99
2022-09-05T06:59:09.034Z,22.04
2022-09-05T07:00:22.197Z,22.09
2022-09-05T07:01:55.274Z,22.13
2022-09-05T07:02:58.933Z,22.18
2022-09-05T07:05:23.295Z,22.23
2022-09-05T07:06:24.339Z,22.30
2022-09-05T07:07:48.126Z,22.36
2022-09-05T07:08:53.817Z,22.40
2022-09-05T07:09:59.476Z,22.43
2022-09-05T07:11:11.911Z,22.48
2022-09-05T07:12:22.995Z,22.53
2022-09-05T07:13:38.809Z,22.56
2022-09-05T07:14:46.279Z,22.61
2022-09-05T07:15:50.926Z,22.66
2022-09-05T07:16:55.568Z,22.71
2022-09-05T07:18:16.223Z,22.73
2022-09-05T07:19:17.720Z,22.79
2022-09-05T07:20:22.068Z,22.83
2022-09-05T07:21:26.438Z,22.89
2022-09-05T07:22:48.798Z,22.92
2022-09-05T07:24:09.599Z,22.98
2022-09-05T07:25:18.010Z,23.01
2022-09-05T07:26:51.520Z,23.06
2022-09-05T07:28:25.753Z,23.12
2022-09-05T07:29:05.830Z,23.16
2022-09-05T07:30:14.074Z,23.19
2022-09-05T07:31:17.330Z,23.23
2022-09-05T07:32:41.186Z,23.28
2022-09-05T07:33:42.895Z,23.30
2022-09-05T07:34:45.588Z,23.33
2022-09-05T07:35:47.719Z,23.38
2022-09-05T07:36:50.261Z,23.41
2022-09-05T07:38:14.659Z,23.48
2022-09-05T07:39:28.176Z,23.53
2022-09-05T07:40:32.191Z,23.59
2022-09-05T07:41:35.524Z,23.64
2022-09-05T07:42:41.746Z,23.69
2022-09-05T07:43:44.115Z,23.73
2022-09-05T07:45:11.830Z,23.78
2022-09-05T07:46:17.377Z,23.85
2022-09-05T07:47:20.571Z,23.90
2022-09-05T07:48:23.781Z,23.95
2022-09-05T07:49:36.463Z,24.00
2022-09-05T07:56:54.104Z,24.06
2022-09-05T07:56:55.562Z,24.26
2022-09-05T07:56:56.083Z,24.14
2022-09-05T07:57:07.929Z,24.32
2022-09-05T07:57:08.835Z,24.20
2022-09-05T07:58:08.074Z,24.40
2022-09-05T07:59:12.883Z,24.46
2022-09-05T08:00:24.677Z,24.49
2022-09-05T08:01:28.874Z,24.52
2022-09-05T08:02:34.716Z,24.56
2022-09-05T08:03:36.248Z,24.61
2022-09-05T08:04:39.373Z,24.63
2022-09-05T08:05:44.476Z,24.68
2022-09-05T08:07:46.701Z,24.73
2022-09-05T08:08:14.847Z,24.79
2022-09-05T08:10:02.287Z,24.82
2022-09-05T08:11:24.066Z,24.89
2022-09-05T08:12:16.093Z,24.95
2022-09-05T08:13:23.828Z,25.01
2022-09-05T08:14:43.491Z,25.08
2022-09-05T08:16:13.245Z,25.13
2022-09-05T08:17:12.543Z,25.19
2022-09-05T08:18:15.798Z,25.25
2022-09-05T08:19:35.695Z,25.28
2022-09-05T08:20:55.662Z,25.35
2022-09-05T08:21:57.610Z,25.42
2022-09-05T08:23:01.304Z,25.48
2022-09-05T08:24:37.939Z,25.52
2022-09-05T08:25:57.006Z,25.61
2022-09-05T08:27:02.316Z,25.68
2022-09-05T08:28:06.349Z,25.75
2022-09-05T08:29:14.063Z,25.81
2022-09-05T08:30:27.293Z,25.88
2022-09-05T08:31:52.667Z,25.96
2022-09-05T08:33:11.453Z,26.04
2022-09-05T08:34:15.642Z,26.13
2022-09-05T08:35:21.015Z,26.19
2022-09-05T08:36:22.466Z,26.25
2022-09-05T08:37:25.862Z,26.30
2022-09-05T08:38:28.998Z,26.36
2022-09-05T08:39:42.511Z,26.44
2022-09-05T08:40:44.019Z,26.49
2022-09-05T08:41:51.215Z,26.54
2022-09-05T08:46:35.603Z,26.59
2022-09-05T08:46:35.891Z,26.62
2022-09-05T08:46:39.337Z,26.69
2022-09-05T08:47:18.429Z,26.79
2022-09-05T08:48:22.547Z,26.86
2022-09-05T08:49:36.798Z,26.91
2022-09-05T08:50:54.959Z,27.01
2022-09-05T08:52:08.729Z,27.07
2022-09-05T08:53:28.393Z,27.13
2022-09-05T08:55:04.386Z,27.24
2022-09-05T08:56:21.581Z,27.36
2022-09-05T08:57:41.735Z,27.45
2022-09-05T08:58:55.385Z,27.51
2022-09-05T09:00:20.735Z,27.57
2022-09-05T09:01:28.762Z,27.56
2022-09-05T09:02:48.502Z,27.56
2022-09-05T09:04:11.438Z,27.59
2022-09-05T09:05:15.979Z,27.55
2022-09-05T09:06:36.179Z,27.58
2022-09-05T09:07:57.496Z,27.60
2022-09-05T09:09:06.806Z,27.66
2022-09-05T09:10:22.687Z,27.71
2022-09-05T09:11:30.970Z,27.79
2022-09-05T09:12:51.063Z,27.80
2022-09-05T09:14:11.266Z,27.89
2022-09-05T09:15:24.864Z,27.95
2022-09-05T09:16:32.110Z,28.02
2022-09-05T09:17:42.911Z,28.14
2022-09-05T09:19:05.373Z,28.23
2022-09-05T09:20:09.753Z,28.26
2022-09-05T09:21:23.463Z,28.23
2022-09-05T09:22:33.614Z,28.28
2022-09-05T09:23:41.096Z,28.36
2022-09-05T09:24:44.884Z,28.46
2022-09-05T09:26:13.443Z,28.47
2022-09-05T09:27:31.349Z,28.46
2022-09-05T09:28:51.733Z,28.44
2022-09-05T09:29:53.901Z,28.47
2022-09-05T09:30:59.835Z,28.43
2022-09-05T09:32:03.996Z,28.43
2022-09-05T09:33:06.210Z,28.43
2022-09-05T09:34:25.834Z,28.43
2022-09-05T09:35:30.655Z,28.43
2022-09-05T09:36:35.151Z,28.50
2022-09-05T09:37:50.718Z,28.63
2022-09-05T09:38:59.337Z,28.72
2022-09-05T09:40:21.834Z,28.81
2022-09-05T09:41:23.419Z,28.88
2022-09-05T09:42:33.641Z,28.96
2022-09-05T09:43:52.610Z,28.94
2022-09-05T09:45:22.931Z,29.04
2022-09-05T09:46:39.139Z,29.16
2022-09-05T09:47:48.551Z,29.30
2022-09-05T09:49:22.969Z,29.23
2022-09-05T09:50:28.940Z,29.34
2022-09-05T09:51:49.006Z,29.42
2022-09-05T09:53:02.904Z,29.52
2022-09-05T09:54:23.165Z,29.69
2022-09-05T09:55:57.210Z,29.80
2022-09-05T09:57:01.700Z,29.86
2022-09-05T09:58:38.894Z,29.98
2022-09-05T09:59:59.406Z,30.32
2022-09-05T10:01:00.942Z,30.54
2022-09-05T10:02:17.679Z,30.68
2022-09-05T10:08:21.353Z,30.87
2022-09-05T10:10:36.225Z,31.16
2022-09-05T10:10:54.452Z,31.32
2022-09-05T10:10:54.672Z,31.80
2022-09-05T10:11:24.608Z,31.60
2022-09-05T10:13:08.953Z,32.33
2022-09-05T10:14:26.193Z,32.55
2022-09-05T10:16:04.108Z,32.69
2022-09-05T10:17:29.976Z,32.78
2022-09-05T10:18:37.903Z,32.87
2022-09-05T10:20:09.382Z,32.87
2022-09-05T10:21:17.698Z,32.99
2022-09-05T10:22:41.355Z,33.11
2022-09-05T10:23:51.907Z,33.28
2022-09-05T10:25:22.850Z,33.42
2022-09-05T10:26:44.803Z,33.64
2022-09-05T10:27:46.512Z,33.75
2022-09-05T10:28:57.912Z,33.88
2022-09-05T10:30:29.506Z,34.08
2022-09-05T10:33:33.796Z,34.29
2022-09-05T10:35:15.320Z,34.68
2022-09-05T10:35:17.847Z,34.52
2022-09-05T10:36:28.069Z,34.91
2022-09-05T10:37:36.500Z,35.00
2022-09-05T10:38:40.313Z,35.12
2022-09-05T10:39:43.495Z,35.19
2022-09-05T10:41:20.229Z,35.24
2022-09-05T10:42:27.838Z,35.19
2022-09-05T10:43:31.036Z,35.25
2022-09-05T10:44:35.342Z,35.24
2022-09-05T10:45:45.556Z,34.92
2022-09-05T10:46:51.623Z,34.78
2022-09-05T10:48:13.746Z,34.74
2022-09-05T10:49:16.426Z,34.79
2022-09-05T10:50:27.427Z,34.85
2022-09-05T10:51:29.878Z,34.89
2022-09-05T10:52:43.353Z,34.97
2022-09-05T10:53:51.159Z,35.01
2022-09-05T10:54:52.616Z,35.03
2022-09-05T10:56:18.220Z,35.01
2022-09-05T10:57:38.552Z,35.04
2022-09-05T10:59:38.733Z,35.19
2022-09-05T11:02:17.205Z,35.31
2022-09-05T11:02:27.377Z,35.33
2022-09-05T11:03:14.895Z,35.40
2022-09-05T11:04:27.402Z,35.50
2022-09-05T11:05:30.761Z,35.49
2022-09-05T11:06:41.091Z,35.57
2022-09-05T11:07:53.115Z,35.70
2022-09-05T11:09:00.590Z,35.82
2022-09-05T11:10:20.400Z,35.79
2022-09-05T11:11:28.530Z,35.83
2022-09-05T11:12:36.629Z,35.91
2022-09-05T11:13:47.124Z,35.96
2022-09-05T11:15:04.643Z,36.02
2022-09-05T11:16:19.382Z,35.63
2022-09-05T11:17:31.777Z,35.63
2022-09-05T11:18:56.191Z,35.67
2022-09-05T11:20:27.655Z,35.69
2022-09-05T11:21:37.135Z,35.65
2022-09-05T11:22:39.223Z,35.63
2022-09-05T11:23:48.735Z,35.55
2022-09-05T11:24:59.295Z,35.48
2022-09-05T11:26:04.450Z,35.41
2022-09-05T11:27:23.714Z,35.20
2022-09-05T11:28:36.943Z,35.09
2022-09-05T11:29:44.747Z,35.03
2022-09-05T11:30:48.760Z,34.94
2022-09-05T11:34:31.337Z,34.83
2022-09-05T11:37:43.063Z,34.65
2022-09-05T11:39:47.266Z,34.60
2022-09-05T11:39:50.312Z,34.60
2022-09-05T11:40:08.282Z,34.59
2022-09-05T11:40:10.551Z,34.57
2022-09-05T11:41:13.241Z,34.53
2022-09-05T11:42:33.921Z,34.49
2022-09-05T11:43:44.478Z,34.44
2022-09-05T11:44:47.071Z,34.37
2022-09-05T11:45:49.228Z,34.29
2022-09-05T11:47:28.137Z,34.28
2022-09-05T11:48:44.607Z,34.26
2022-09-05T11:50:00.200Z,34.19
2022-09-05T11:51:02.116Z,34.23
2022-09-05T11:52:22.086Z,34.15
2022-09-05T11:53:38.871Z,34.13
2022-09-05T11:54:40.604Z,34.06
2022-09-05T11:56:00.662Z,34.01
2022-09-05T11:57:32.496Z,34.01
2022-09-05T11:58:43.438Z,33.90
2022-09-05T11:59:46.733Z,33.88
2022-09-05T12:01:41.336Z,33.82
2022-09-05T12:02:49.695Z,33.87
2022-09-05T12:04:14.234Z,33.90
2022-09-05T12:05:49.386Z,33.81
2022-09-05T12:07:25.232Z,33.78
2022-09-05T12:08:36.431Z,33.75
2022-09-05T12:09:40.679Z,33.75
2022-09-05T12:10:58.535Z,33.77
2022-09-05T12:12:38.722Z,33.80
2022-09-05T12:13:55.470Z,33.86
2022-09-05T12:14:57.552Z,33.88
2022-09-05T12:16:08.602Z,33.88
2022-09-05T12:17:17.752Z,33.85
2022-09-05T12:18:42.937Z,33.87
2022-09-05T12:19:49.249Z,33.85
2022-09-05T12:20:50.719Z,33.82
2022-09-05T12:22:16.404Z,33.81
2022-09-05T12:23:53.902Z,33.85
2022-09-05T12:25:24.249Z,33.90
2022-09-05T12:27:44.289Z,33.86
2022-09-05T12:29:09.571Z,33.80
2022-09-05T12:29:38.730Z,33.76
2022-09-05T12:31:22.149Z,33.66
2022-09-05T12:32:59.610Z,33.57
2022-09-05T12:36:05.777Z,33.61
2022-09-05T12:36:09.947Z,33.57
2022-09-05T12:40:44.540Z,33.55
2022-09-05T12:40:55.705Z,33.56
2022-09-05T12:40:59.480Z,33.57
2022-09-05T12:41:37.512Z,33.57
2022-09-05T12:42:14.104Z,33.62
2022-09-05T12:44:37.011Z,33.68
2022-09-05T12:44:46.455Z,33.73
2022-09-05T12:45:56.315Z,33.75
2022-09-05T12:47:00.142Z,33.72
2022-09-05T12:48:53.307Z,33.74
2022-09-05T12:50:15.158Z,33.68
2022-09-05T12:51:45.826Z,33.75
2022-09-05T12:52:42.425Z,33.79
2022-09-05T12:53:49.392Z,33.78
2022-09-05T12:54:57.162Z,33.79
2022-09-05T12:56:45.927Z,33.84
2022-09-05T13:02:41.854Z,33.86
2022-09-05T13:02:55.755Z,33.82
2022-09-05T13:03:04.680Z,33.94
2022-09-05T13:03:08.951Z,33.86
2022-09-05T13:03:35.685Z,33.95
2022-09-05T13:04:30.304Z,33.98
2022-09-05T13:05:54.109Z,34.00
2022-09-05T13:06:59.115Z,33.99
2022-09-05T13:08:00.631Z,33.96
2022-09-05T13:09:03.654Z,33.97
2022-09-05T13:13:48.581Z,33.98
2022-09-05T13:14:47.192Z,33.88
2022-09-05T13:14:58.211Z,33.82
2022-09-05T13:15:06.136Z,33.79
2022-09-05T13:16:17.060Z,33.72
2022-09-05T13:17:31.118Z,33.71
2022-09-05T13:18:41.630Z,33.70
2022-09-05T13:19:45.751Z,33.69
2022-09-05T13:20:56.008Z,33.71
2022-09-05T13:21:58.344Z,33.68
2022-09-05T13:23:01.102Z,33.66
2022-09-05T13:24:05.756Z,33.66
2022-09-05T13:25:08.838Z,33.67
2022-09-05T13:26:17.720Z,33.64
2022-09-05T13:27:21.659Z,33.60
2022-09-05T13:28:25.175Z,33.56
2022-09-05T13:29:28.861Z,33.56
2022-09-05T13:34:05.837Z,33.59
2022-09-05T13:37:55.782Z,33.64
2022-09-05T13:37:58.390Z,33.74
2022-09-05T13:37:59.137Z,33.68
2022-09-05T13:38:08.166Z,33.72
2022-09-05T13:38:20.784Z,33.74
2022-09-05T13:39:01.004Z,33.76
2022-09-05T13:40:09.609Z,33.77
2022-09-05T13:41:26.790Z,33.77
2022-09-05T13:42:33.430Z,33.80
2022-09-05T13:43:38.306Z,33.78
2022-09-05T13:44:40.655Z,33.77
2022-09-05T13:46:06.397Z,33.73
2022-09-05T13:47:28.934Z,33.73
2022-09-05T13:49:23.574Z,33.67
2022-09-05T13:49:56.505Z,33.69
2022-09-05T13:51:06.931Z,33.71
2022-09-05T13:52:26.419Z,33.64
2022-09-05T13:53:39.806Z,33.48
2022-09-05T13:55:01.582Z,33.41
2022-09-05T13:56:24.144Z,33.33
2022-09-05T13:57:32.737Z,33.35
2022-09-05T13:58:45.438Z,33.36
2022-09-05T14:00:27.649Z,33.28
2022-09-05T14:02:24.640Z,33.33
2022-09-05T14:03:38.316Z,33.34
2022-09-05T14:06:09.972Z,33.46
2022-09-05T14:07:47.163Z,33.47
2022-09-05T14:10:21.667Z,33.41
2022-09-05T14:11:31.978Z,33.37
2022-09-05T14:12:44.447Z,33.39
2022-09-05T14:13:48.826Z,33.37
2022-09-05T14:16:14.931Z,33.43
2022-09-05T14:19:01.307Z,33.48
2022-09-05T14:20:21.503Z,33.55
2022-09-05T14:21:22.985Z,33.57
2022-09-05T14:22:37.747Z,33.62
2022-09-05T14:23:56.672Z,33.69
2022-09-05T14:24:58.720Z,33.74
2022-09-05T14:26:02.599Z,33.77
2022-09-05T14:27:06.063Z,33.79
2022-09-05T14:28:14.110Z,33.77
2022-09-05T14:29:15.602Z,33.79
2022-09-05T14:31:37.165Z,33.72
2022-09-05T14:37:34.238Z,33.71
2022-09-05T14:37:42.672Z,33.61
2022-09-05T14:37:49.519Z,33.53
2022-09-05T14:38:00.544Z,33.69
2022-09-05T14:38:15.855Z,33.52
2022-09-05T14:39:56.673Z,33.51
2022-09-05T14:41:07.432Z,33.47
2022-09-05T14:42:14.999Z,33.49
2022-09-05T14:43:35.600Z,33.49
2022-09-05T14:44:41.626Z,33.49
2022-09-05T14:45:46.244Z,33.49
2022-09-05T14:46:49.747Z,33.46
2022-09-05T14:48:04.458Z,33.46
2022-09-05T14:49:10.942Z,33.49
2022-09-05T14:50:31.037Z,33.53
2022-09-05T14:51:36.058Z,33.55
2022-09-05T14:52:43.651Z,33.49
2022-09-05T14:54:01.853Z,33.44
2022-09-05T14:55:20.633Z,33.44
2022-09-05T14:57:24.014Z,33.38
2022-09-05T15:02:42.923Z,33.32
2022-09-05T15:02:50.348Z,33.33
2022-09-05T15:02:54.063Z,33.31
2022-09-05T15:02:54.798Z,33.34
2022-09-05T15:05:12.820Z,33.29
2022-09-05T15:06:15.747Z,33.28
2022-09-05T15:07:21.135Z,33.27
2022-09-05T15:10:21.945Z,33.28
2022-09-05T15:12:15.943Z,33.27
2022-09-05T15:12:16.182Z,33.30
2022-09-05T15:12:44.117Z,33.35
2022-09-05T15:13:57.097Z,33.36
2022-09-05T15:15:10.575Z,33.37
2022-09-05T15:16:13.002Z,33.39
2022-09-05T15:17:17.804Z,33.39
2022-09-05T15:18:21.866Z,33.41
2022-09-05T15:20:04.995Z,33.42
2022-09-05T15:21:33.231Z,33.44
2022-09-05T15:22:37.538Z,33.44
2022-09-05T15:23:39.099Z,33.44
2022-09-05T15:24:40.575Z,33.45
2022-09-05T15:25:45.240Z,33.47
2022-09-05T15:26:52.817Z,33.46
2022-09-05T15:27:55.069Z,33.44
2022-09-05T15:29:14.384Z,33.43
2022-09-05T15:30:19.406Z,33.41
2022-09-05T15:31:20.947Z,33.36
2022-09-05T15:32:26.514Z,33.34
2022-09-05T15:33:28.909Z,33.25
2022-09-05T15:34:32.636Z,33.21
2022-09-05T15:35:35.901Z,33.21
2022-09-05T15:36:38.051Z,33.22
2022-09-05T15:37:40.962Z,33.19
2022-09-05T15:38:56.225Z,33.12
2022-09-05T15:40:12.284Z,33.04
2022-09-05T15:41:25.652Z,33.07
2022-09-05T15:42:28.480Z,33.09
2022-09-05T15:43:29.991Z,33.10
2022-09-05T15:44:36.435Z,33.11
2022-09-05T15:45:46.896Z,33.14
2022-09-05T15:46:49.520Z,33.13
2022-09-05T15:48:18.249Z,33.13
2022-09-05T15:49:33.330Z,33.08
2022-09-05T15:50:37.450Z,33.05
2022-09-05T15:51:46.777Z,33.03
2022-09-05T15:52:48.671Z,33.00
2022-09-05T15:53:58.223Z,32.92
2022-09-05T15:55:17.584Z,32.87
2022-09-05T15:56:19.627Z,32.87
2022-09-05T15:57:22.671Z,32.90
2022-09-05T15:58:24.234Z,32.90
2022-09-05T15:59:28.111Z,32.92
2022-09-05T16:00:32.775Z,32.93
2022-09-05T16:01:59.674Z,32.91
2022-09-05T16:03:18.653Z,32.87
2022-09-05T16:08:58.122Z,32.76
2022-09-05T16:10:27.534Z,32.75
2022-09-05T16:10:36.897Z,32.75
2022-09-05T16:10:38.772Z,32.82
2022-09-05T16:10:42.216Z,32.80
2022-09-05T16:12:54.502Z,32.84
2022-09-05T16:14:07.355Z,32.83
2022-09-05T16:16:40.418Z,32.84
2022-09-05T16:23:14.058Z,32.80
2022-09-05T16:23:14.593Z,32.81
2022-09-05T16:23:17.985Z,32.86
2022-09-05T16:23:26.564Z,32.74
2022-09-05T16:23:30.447Z,32.69
2022-09-05T16:23:56.972Z,32.68
2022-09-05T16:25:14.896Z,32.70
2022-09-05T16:26:25.243Z,32.69